Time;durP1;ratioP1;P1;durP2;ratioP2;P2;SDS_P1;SDS_P2;PMS_P1;PMS_P2;Temp;Humidity;BMP_temperature;BMP_pressure;BME280_temperature;BME280_humidity;BME280_pressure;Samples;Min_cycle;Max_cycle;Signal;HPM_P1;HPM_P2
2023/03/27 00:00:26;;;;;;;2.80;1.20;;;;;;;;;;5012682;28;20533;-64
2023/03/27 00:02:53;;;;;;;3.60;1.80;;;;;;;;;;5012537;28;20548;-63
2023/03/27 00:05:20;;;;;;;3.37;1.70;;;;;;;;;;5012481;28;20934;-64
2023/03/27 00:07:47;;;;;;;4.05;1.65;;;;;;;;;;5012727;28;20458;-64
2023/03/27 00:10:14;;;;;;;9.03;1.63;;;;;;;;;;5012665;28;20291;-63
2023/03/27 00:12:42;;;;;;;5.45;1.80;;;;;;;;;;5012594;28;20460;-63
2023/03/27 00:15:14;;;;;;;3.33;1.42;;;;;;;;;;5012572;28;20286;-63
2023/03/27 00:17:42;;;;;;;4.87;1.70;;;;;;;;;;5012578;28;20204;-62
2023/03/27 00:20:10;;;;;;;6.00;2.00;;;;;;;;;;5012587;28;20807;-64
2023/03/27 00:22:38;;;;;;;3.40;1.40;;;;;;;;;;5012299;28;21011;-63
2023/03/27 00:25:05;;;;;;;8.70;1.50;;;;;;;;;;5012361;28;20454;-62
2023/03/27 00:27:32;;;;;;;2.23;1.30;;;;;;;;;;5014897;28;20584;-62
2023/03/27 00:29:59;;;;;;;1.83;1.20;;;;;;;;;;5015984;28;20542;-62
2023/03/27 00:32:27;;;;;;;2.20;1.50;;;;;;;;;;5015972;28;20218;-62
2023/03/27 00:34:54;;;;;;;4.17;1.17;;;;;;;;;;5016085;28;20283;-62
2023/03/27 00:37:21;;;;;;;3.20;1.70;;;;;;;;;;5016043;28;20545;-62
2023/03/27 00:39:49;;;;;;;2.80;1.20;;;;;;;;;;5015660;28;20482;-61
2023/03/27 00:42:21;;;;;;;3.15;1.38;;;;;;;;;;5015766;28;20525;-61
2023/03/27 00:44:50;;;;;;;1.60;1.10;;;;;;;;;;5015566;28;20202;-61
2023/03/27 00:47:17;;;;;;;2.73;1.00;;;;;;;;;;5015777;28;20486;-62
2023/03/27 00:49:45;;;;;;;2.95;1.40;;;;;;;;;;5015826;28;20450;-62
2023/03/27 00:52:14;;;;;;;3.30;1.10;;;;;;;;;;5015832;28;20192;-62
2023/03/27 00:54:41;;;;;;;2.00;1.20;;;;;;;;;;5015661;28;20510;-62
2023/03/27 00:57:10;;;;;;;3.13;1.20;;;;;;;;;;5015535;28;20295;-62
2023/03/27 00:59:39;;;;;;;4.55;1.95;;;;;;;;;;5015671;28;20203;-62
2023/03/27 01:02:07;;;;;;;2.08;1.30;;;;;;;;;;5015285;28;20207;-62
2023/03/27 01:04:34;;;;;;;6.10;1.53;;;;;;;;;;5015644;28;20286;-63
2023/03/27 01:07:04;;;;;;;5.35;1.52;;;;;;;;;;5015583;28;20455;-63
2023/03/27 01:09:32;;;;;;;1.42;1.05;;;;;;;;;;5015513;28;20195;-63
2023/03/27 01:12:08;;;;;;;1.80;1.25;;;;;;;;;;5015313;28;20196;-63
2023/03/27 01:14:38;;;;;;;5.53;1.20;;;;;;;;;;5015418;28;20191;-63
2023/03/27 01:17:12;;;;;;;3.27;1.10;;;;;;;;;;5015491;28;20198;-63
2023/03/27 01:19:53;;;;;;;2.60;0.90;;;;;;;;;;5015273;28;20461;-63
2023/03/27 01:22:38;;;;;;;2.85;1.20;;;;;;;;;;4998817;28;20568;-62
2023/03/27 01:25:14;;;;;;;6.53;1.47;;;;;;;;;;5015187;28;20191;-63
2023/03/27 01:28:14;;;;;;;2.28;0.90;;;;;;;;;;5015069;28;20538;-62
2023/03/27 01:30:47;;;;;;;2.20;1.10;;;;;;;;;;4935199;29;20246;-62
2023/03/27 01:33:24;;;;;;;2.55;1.00;;;;;;;;;;4935334;29;20697;-62
2023/03/27 01:36:12;;;;;;;1.35;1.17;;;;;;;;;;4979577;28;20677;-63
2023/03/27 01:39:06;;;;;;;4.53;1.48;;;;;;;;;;5014393;28;20223;-63
2023/03/27 01:41:35;;;;;;;5.20;1.33;;;;;;;;;;5014859;28;20196;-62
2023/03/27 01:44:05;;;;;;;1.90;1.40;;;;;;;;;;5014683;28;20202;-62
2023/03/27 01:46:34;;;;;;;2.27;1.07;;;;;;;;;;5014762;28;20493;-62
2023/03/27 01:49:05;;;;;;;1.60;1.48;;;;;;;;;;5014689;28;20486;-62
2023/03/27 01:51:34;;;;;;;2.25;1.40;;;;;;;;;;5014535;28;20198;-62
2023/03/27 01:54:02;;;;;;;1.47;1.10;;;;;;;;;;5014367;28;20651;-62
2023/03/27 01:56:31;;;;;;;1.90;1.50;;;;;;;;;;5014617;28;20542;-62
2023/03/27 01:59:02;;;;;;;3.07;1.40;;;;;;;;;;5014455;28;20223;-62
2023/03/27 02:01:31;;;;;;;2.10;1.10;;;;;;;;;;5014299;28;20462;-62
2023/03/27 02:04:01;;;;;;;1.40;1.30;;;;;;;;;;5014086;28;20486;-62
2023/03/27 02:06:32;;;;;;;1.70;1.50;;;;;;;;;;5014420;28;20272;-62
2023/03/27 02:09:00;;;;;;;2.65;1.15;;;;;;;;;;5014400;28;20192;-62
2023/03/27 02:11:29;;;;;;;1.90;1.50;;;;;;;;;;5014234;28;20196;-62
2023/03/27 02:13:58;;;;;;;3.70;1.42;;;;;;;;;;5014164;28;20202;-62
2023/03/27 02:16:32;;;;;;;1.50;1.17;;;;;;;;;;5014032;28;20196;-62
2023/03/27 02:19:00;;;;;;;2.55;1.50;;;;;;;;;;5014154;28;20192;-62
2023/03/27 02:21:30;;;;;;;5.82;1.70;;;;;;;;;;5014031;28;20614;-62
2023/03/27 02:24:00;;;;;;;1.55;1.25;;;;;;;;;;5013785;28;20306;-62
2023/03/27 02:26:28;;;;;;;2.13;1.25;;;;;;;;;;5013832;28;20206;-62
2023/03/27 02:28:59;;;;;;;1.73;1.20;;;;;;;;;;5013700;28;20651;-62
2023/03/27 02:31:37;;;;;;;6.00;1.30;;;;;;;;;;5013672;28;20253;-62
2023/03/27 02:34:22;;;;;;;1.50;1.35;;;;;;;;;;5013837;28;20323;-62
2023/03/27 02:36:54;;;;;;;1.73;1.20;;;;;;;;;;5013579;28;20613;-62
2023/03/27 02:39:24;;;;;;;1.47;1.37;;;;;;;;;;5013501;28;20737;-62
2023/03/27 02:41:53;;;;;;;1.90;1.20;;;;;;;;;;5013769;28;20455;-62
2023/03/27 02:44:22;;;;;;;2.90;1.65;;;;;;;;;;5013745;28;20283;-63
2023/03/27 02:46:52;;;;;;;1.80;1.50;;;;;;;;;;5013669;28;20541;-63
2023/03/27 02:49:22;;;;;;;3.28;1.20;;;;;;;;;;5012853;28;20227;-62
2023/03/27 02:51:51;;;;;;;3.22;1.00;;;;;;;;;;5013479;28;20246;-62
2023/03/27 02:54:21;;;;;;;2.67;1.20;;;;;;;;;;5013483;28;20285;-62
2023/03/27 02:56:50;;;;;;;1.35;0.82;;;;;;;;;;5013564;28;20196;-62
2023/03/27 02:59:21;;;;;;;1.35;1.25;;;;;;;;;;5013436;28;20278;-62
2023/03/27 03:01:48;;;;;;;4.00;1.20;;;;;;;;;;5013492;28;20632;-63
2023/03/27 03:04:19;;;;;;;2.30;1.20;;;;;;;;;;5013103;28;20639;-62
2023/03/27 03:06:48;;;;;;;1.40;1.30;;;;;;;;;;5013586;28;20219;-61
2023/03/27 03:09:15;;;;;;;3.70;1.25;;;;;;;;;;5013486;28;20655;-62
2023/03/27 03:11:46;;;;;;;1.90;0.80;;;;;;;;;;5013420;28;20223;-62
2023/03/27 03:14:13;;;;;;;2.55;1.10;;;;;;;;;;5013128;28;20199;-62
2023/03/27 03:16:40;;;;;;;1.13;0.90;;;;;;;;;;5013103;28;20622;-62
2023/03/27 03:19:07;;;;;;;1.20;1.00;;;;;;;;;;5013075;28;20234;-62
2023/03/27 03:21:36;;;;;;;1.15;1.02;;;;;;;;;;5013221;28;20666;-62
2023/03/27 03:24:03;;;;;;;2.85;1.00;;;;;;;;;;5013076;28;20238;-62
2023/03/27 03:26:31;;;;;;;3.22;1.10;;;;;;;;;;5013006;28;20198;-62
2023/03/27 03:28:57;;;;;;;2.72;1.05;;;;;;;;;;5012970;28;20199;-62
2023/03/27 03:31:25;;;;;;;5.68;1.40;;;;;;;;;;5012855;28;20547;-62
2023/03/27 03:33:52;;;;;;;2.55;1.10;;;;;;;;;;5012945;28;20220;-62
2023/03/27 03:36:18;;;;;;;1.60;1.27;;;;;;;;;;5012739;28;20738;-62
2023/03/27 03:38:47;;;;;;;1.40;1.20;;;;;;;;;;5012663;28;20231;-62
2023/03/27 03:41:14;;;;;;;2.25;1.50;;;;;;;;;;5012848;28;20201;-62
2023/03/27 03:43:40;;;;;;;2.65;1.00;;;;;;;;;;5012648;28;20283;-62
2023/03/27 03:46:07;;;;;;;1.15;1.05;;;;;;;;;;5012611;28;20195;-62
2023/03/27 03:48:35;;;;;;;2.25;1.35;;;;;;;;;;5012870;28;20191;-62
2023/03/27 03:51:02;;;;;;;1.30;1.10;;;;;;;;;;5012811;28;20192;-63
2023/03/27 03:53:28;;;;;;;0.93;0.82;;;;;;;;;;5012714;28;20305;-62
2023/03/27 03:55:57;;;;;;;3.00;1.10;;;;;;;;;;5012758;28;20722;-62
2023/03/27 03:58:24;;;;;;;5.60;1.33;;;;;;;;;;5012698;28;20282;-62
2023/03/27 04:00:53;;;;;;;3.90;1.33;;;;;;;;;;5014454;28;20278;-62
2023/03/27 04:03:20;;;;;;;3.00;1.20;;;;;;;;;;5016663;28;20599;-62
2023/03/27 04:05:47;;;;;;;2.30;1.15;;;;;;;;;;5016522;28;20236;-62
2023/03/27 04:08:14;;;;;;;1.15;1.00;;;;;;;;;;5016382;28;20197;-63
2023/03/27 04:10:41;;;;;;;1.33;1.13;;;;;;;;;;5016272;28;20246;-62
2023/03/27 04:13:10;;;;;;;2.25;1.15;;;;;;;;;;5016141;28;20211;-62
2023/03/27 04:15:37;;;;;;;1.10;1.00;;;;;;;;;;5016411;28;20613;-62
2023/03/27 04:18:04;;;;;;;6.65;1.42;;;;;;;;;;5016373;28;20299;-62
2023/03/27 04:20:33;;;;;;;1.45;0.80;;;;;;;;;;5016289;28;20608;-62
2023/03/27 04:23:01;;;;;;;1.25;0.80;;;;;;;;;;5016162;28;20203;-62
2023/03/27 04:25:28;;;;;;;1.27;1.02;;;;;;;;;;5015933;28;20207;-62
2023/03/27 04:27:55;;;;;;;1.23;0.93;;;;;;;;;;5016272;28;20196;-62
2023/03/27 04:30:26;;;;;;;2.65;1.00;;;;;;;;;;5016091;28;20625;-62
2023/03/27 04:32:53;;;;;;;1.20;0.98;;;;;;;;;;5016065;28;20221;-62
2023/03/27 04:35:22;;;;;;;2.40;1.17;;;;;;;;;;5015900;28;20275;-62
2023/03/27 04:37:49;;;;;;;2.40;2.03;;;;;;;;;;5015603;28;20188;-62
2023/03/27 04:40:17;;;;;;;1.02;0.80;;;;;;;;;;5015858;28;20544;-62
2023/03/27 04:42:45;;;;;;;1.30;1.20;;;;;;;;;;5015939;28;20551;-62
2023/03/27 04:45:15;;;;;;;1.45;1.10;;;;;;;;;;5015848;28;20195;-62
2023/03/27 04:47:45;;;;;;;3.75;1.45;;;;;;;;;;5015735;28;20223;-62
2023/03/27 04:50:13;;;;;;;1.95;1.10;;;;;;;;;;5015562;28;20693;-62
2023/03/27 04:52:40;;;;;;;1.67;1.20;;;;;;;;;;5015420;28;20249;-62
2023/03/27 04:55:07;;;;;;;3.55;1.20;;;;;;;;;;5015632;28;20561;-62
2023/03/27 04:57:34;;;;;;;3.03;1.17;;;;;;;;;;5015690;28;20242;-62
2023/03/27 05:00:12;;;;;;;1.40;0.90;;;;;;;;;;5015537;28;20199;-62
2023/03/27 05:02:40;;;;;;;1.65;1.10;;;;;;;;;;5015425;28;20659;-62
2023/03/27 05:05:09;;;;;;;1.40;1.30;;;;;;;;;;5015358;28;20564;-62
2023/03/27 05:07:36;;;;;;;2.67;1.15;;;;;;;;;;5015514;28;20222;-62
2023/03/27 05:10:03;;;;;;;2.83;1.08;;;;;;;;;;5015359;28;20198;-63
2023/03/27 05:12:30;;;;;;;1.20;1.10;;;;;;;;;;5014622;28;20192;-63
2023/03/27 05:14:58;;;;;;;2.92;1.30;;;;;;;;;;5015111;28;20226;-63
2023/03/27 05:17:25;;;;;;;2.45;1.40;;;;;;;;;;5015079;28;20203;-63
2023/03/27 05:19:52;;;;;;;1.40;1.10;;;;;;;;;;5014985;28;20504;-63
2023/03/27 05:22:21;;;;;;;1.95;1.40;;;;;;;;;;5015098;28;20192;-62
2023/03/27 05:24:47;;;;;;;1.88;1.65;;;;;;;;;;5015044;28;20249;-63
2023/03/27 05:27:15;;;;;;;1.55;1.17;;;;;;;;;;5014952;28;20289;-63
2023/03/27 05:29:41;;;;;;;2.38;1.40;;;;;;;;;;5014847;28;20199;-62
2023/03/27 05:32:08;;;;;;;1.83;1.00;;;;;;;;;;5014692;28;20287;-63
2023/03/27 05:34:37;;;;;;;1.88;1.00;;;;;;;;;;5014841;28;20687;-63
2023/03/27 05:37:05;;;;;;;4.20;1.20;;;;;;;;;;5014889;28;20219;-62
2023/03/27 05:39:35;;;;;;;1.10;1.00;;;;;;;;;;5014492;28;20230;-63
2023/03/27 05:42:02;;;;;;;11.70;6.10;;;;;;;;;;5014587;28;20622;-62
2023/03/27 05:44:29;;;;;;;4.72;1.40;;;;;;;;;;5014605;28;20230;-63
2023/03/27 05:46:56;;;;;;;2.17;1.15;;;;;;;;;;5014480;28;20853;-62
2023/03/27 05:49:23;;;;;;;4.18;1.45;;;;;;;;;;5014601;28;20191;-63
2023/03/27 05:51:49;;;;;;;6.47;1.27;;;;;;;;;;5014584;28;20199;-62
2023/03/27 05:54:16;;;;;;;2.78;1.00;;;;;;;;;;5014391;28;20310;-63
2023/03/27 05:56:45;;;;;;;1.95;1.27;;;;;;;;;;5014472;28;20223;-63
2023/03/27 05:59:12;;;;;;;1.70;1.30;;;;;;;;;;5014115;28;20191;-63
2023/03/27 06:01:39;;;;;;;1.35;1.23;;;;;;;;;;5014588;28;20552;-62
2023/03/27 06:04:07;;;;;;;1.05;0.90;;;;;;;;;;5014319;28;20192;-63
2023/03/27 06:06:34;;;;;;;2.65;1.88;;;;;;;;;;5014324;28;20297;-63
2023/03/27 06:09:03;;;;;;;1.98;1.20;;;;;;;;;;5014237;28;20192;-63
2023/03/27 06:11:30;;;;;;;1.90;1.40;;;;;;;;;;5014040;28;20694;-63
2023/03/27 06:13:58;;;;;;;1.90;1.42;;;;;;;;;;5013954;28;20683;-63
2023/03/27 06:16:25;;;;;;;4.03;1.20;;;;;;;;;;5014244;28;20195;-62
2023/03/27 06:18:52;;;;;;;2.30;1.65;;;;;;;;;;5014095;28;20227;-63
2023/03/27 06:21:19;;;;;;;2.75;1.70;;;;;;;;;;5013925;28;20199;-63
2023/03/27 06:23:46;;;;;;;1.92;1.70;;;;;;;;;;5013389;28;20202;-63
2023/03/27 06:26:14;;;;;;;1.83;1.50;;;;;;;;;;5013670;28;20192;-63
2023/03/27 06:28:41;;;;;;;2.25;1.65;;;;;;;;;;5014210;28;20238;-63
2023/03/27 06:31:10;;;;;;;1.97;1.27;;;;;;;;;;5013869;28;20227;-63
2023/03/27 06:33:39;;;;;;;2.58;1.30;;;;;;;;;;5013776;28;20482;-63
2023/03/27 06:36:07;;;;;;;3.25;1.30;;;;;;;;;;5013630;28;20389;-63
2023/03/27 06:38:34;;;;;;;2.17;1.90;;;;;;;;;;5013351;28;20634;-63
2023/03/27 06:41:01;;;;;;;2.35;1.52;;;;;;;;;;5013415;28;20191;-63
2023/03/27 06:43:28;;;;;;;2.42;1.88;;;;;;;;;;5013541;28;20242;-63
2023/03/27 06:45:55;;;;;;;2.03;1.58;;;;;;;;;;5013637;28;20196;-63
2023/03/27 06:48:23;;;;;;;2.78;1.60;;;;;;;;;;5013949;28;20706;-63
2023/03/27 06:50:51;;;;;;;4.88;2.15;;;;;;;;;;5013754;28;20274;-62
2023/03/27 06:53:18;;;;;;;2.42;1.70;;;;;;;;;;5013384;28;20257;-62
2023/03/27 06:55:45;;;;;;;3.35;1.90;;;;;;;;;;5013589;28;20192;-62
2023/03/27 06:58:13;;;;;;;3.17;2.43;;;;;;;;;;5013749;28;20200;-62
2023/03/27 07:00:40;;;;;;;4.38;1.75;;;;;;;;;;5013720;28;20549;-62
2023/03/27 07:03:08;;;;;;;2.13;1.73;;;;;;;;;;5013407;28;20663;-63
2023/03/27 07:05:39;;;;;;;3.30;1.50;;;;;;;;;;5013501;28;20543;-63
2023/03/27 07:08:06;;;;;;;1.65;1.40;;;;;;;;;;5013303;28;20214;-62
2023/03/27 07:10:34;;;;;;;3.90;1.80;;;;;;;;;;5013379;28;20192;-62
2023/03/27 07:13:01;;;;;;;2.13;1.60;;;;;;;;;;5013411;28;20192;-62
2023/03/27 07:15:28;;;;;;;1.35;1.25;;;;;;;;;;5013251;28;21076;-62
2023/03/27 07:17:55;;;;;;;2.22;1.83;;;;;;;;;;5013370;28;20200;-63
2023/03/27 07:20:23;;;;;;;4.85;1.30;;;;;;;;;;5013198;28;20199;-62
2023/03/27 07:22:51;;;;;;;2.28;2.13;;;;;;;;;;5013534;28;20242;-64
2023/03/27 07:25:18;;;;;;;1.85;1.30;;;;;;;;;;5013341;28;20287;-63
2023/03/27 07:27:45;;;;;;;2.08;1.00;;;;;;;;;;5012734;28;20199;-63
2023/03/27 07:30:13;;;;;;;1.25;1.10;;;;;;;;;;5013094;28;20200;-64
2023/03/27 07:32:40;;;;;;;0.77;0.70;;;;;;;;;;5013004;28;20190;-64
2023/03/27 07:35:08;;;;;;;1.52;0.82;;;;;;;;;;5012505;28;20274;-65
2023/03/27 07:37:36;;;;;;;2.53;0.82;;;;;;;;;;5012987;28;20195;-64
2023/03/27 07:40:06;;;;;;;3.05;1.45;;;;;;;;;;5013211;28;20603;-65
2023/03/27 07:42:34;;;;;;;1.00;0.90;;;;;;;;;;5013256;28;20199;-59
2023/03/27 07:45:01;;;;;;;2.05;1.02;;;;;;;;;;5012956;28;20234;-60
2023/03/27 07:47:28;;;;;;;1.83;0.93;;;;;;;;;;5012879;28;20206;-60
2023/03/27 07:49:55;;;;;;;1.10;0.90;;;;;;;;;;5012863;28;20198;-60
2023/03/27 07:52:22;;;;;;;2.08;1.10;;;;;;;;;;5012877;28;20196;-59
2023/03/27 07:54:50;;;;;;;1.63;1.00;;;;;;;;;;5012959;28;20229;-64
2023/03/27 07:57:18;;;;;;;1.95;1.33;;;;;;;;;;5012604;28;20537;-61
2023/03/27 07:59:45;;;;;;;1.25;1.00;;;;;;;;;;5012716;28;20283;-59
2023/03/27 08:02:12;;;;;;;1.60;1.20;;;;;;;;;;5012801;28;20303;-62
2023/03/27 08:04:39;;;;;;;2.35;1.40;;;;;;;;;;5012967;28;20674;-61
2023/03/27 08:07:06;;;;;;;2.60;1.83;;;;;;;;;;5012859;28;20287;-64
2023/03/27 08:09:33;;;;;;;3.38;1.00;;;;;;;;;;5012583;28;20791;-61
2023/03/27 08:12:00;;;;;;;1.38;1.25;;;;;;;;;;5012759;28;20287;-63
2023/03/27 08:14:29;;;;;;;3.30;1.08;;;;;;;;;;5012568;28;20216;-63
2023/03/27 08:16:55;;;;;;;2.65;1.20;;;;;;;;;;5012615;28;20219;-61
2023/03/27 08:19:22;;;;;;;1.10;1.00;;;;;;;;;;5012756;28;20536;-63
2023/03/27 08:21:49;;;;;;;2.35;1.50;;;;;;;;;;4992440;28;20272;-62
2023/03/27 08:24:18;;;;;;;2.42;1.05;;;;;;;;;;4973519;28;20202;-60
2023/03/27 08:26:45;;;;;;;3.67;1.20;;;;;;;;;;4973513;28;20284;-59
2023/03/27 08:29:12;;;;;;;1.77;1.15;;;;;;;;;;4973285;28;20547;-61
2023/03/27 08:31:41;;;;;;;1.67;0.90;;;;;;;;;;4973400;28;20200;-62
2023/03/27 08:34:09;;;;;;;0.98;0.90;;;;;;;;;;4973407;28;20487;-61
2023/03/27 08:36:37;;;;;;;1.63;0.85;;;;;;;;;;4973592;28;20299;-59
2023/03/27 08:39:06;;;;;;;1.60;1.45;;;;;;;;;;4985015;28;20303;-61
2023/03/27 08:41:37;;;;;;;1.63;1.50;;;;;;;;;;4992749;28;20287;-62
2023/03/27 08:44:06;;;;;;;2.50;1.03;;;;;;;;;;4992886;28;20183;-60
2023/03/27 08:46:36;;;;;;;1.38;1.17;;;;;;;;;;4992811;28;20801;-62
2023/03/27 08:49:07;;;;;;;1.33;0.90;;;;;;;;;;4996009;28;20272;-60
2023/03/27 08:51:36;;;;;;;3.73;1.30;;;;;;;;;;4996245;28;20525;-60
2023/03/27 08:54:07;;;;;;;3.00;1.63;;;;;;;;;;4996443;28;20446;-62
2023/03/27 08:56:34;;;;;;;2.60;1.17;;;;;;;;;;4996198;28;20526;-62
2023/03/27 08:59:01;;;;;;;3.27;1.00;;;;;;;;;;4996045;28;20965;-59
2023/03/27 09:01:32;;;;;;;1.10;1.00;;;;;;;;;;4996321;28;20459;-61
2023/03/27 09:04:02;;;;;;;1.00;0.90;;;;;;;;;;4995958;28;20202;-59
2023/03/27 09:06:37;;;;;;;1.10;1.00;;;;;;;;;;4996034;28;20455;-61
2023/03/27 09:09:07;;;;;;;2.27;1.23;;;;;;;;;;4995817;28;20509;-61
2023/03/27 09:11:38;;;;;;;3.23;1.13;;;;;;;;;;4996271;28;20462;-62
2023/03/27 09:14:09;;;;;;;2.13;1.47;;;;;;;;;;4995433;28;20790;-62
2023/03/27 09:16:38;;;;;;;1.33;1.20;;;;;;;;;;4995888;28;20451;-63
2023/03/27 09:19:11;;;;;;;17.00;3.23;;;;;;;;;;4995625;28;20455;-62
2023/03/27 09:21:42;;;;;;;1.50;1.15;;;;;;;;;;4995856;28;20451;-61
2023/03/27 09:24:16;;;;;;;1.17;1.07;;;;;;;;;;4995927;28;20219;-61
2023/03/27 09:26:43;;;;;;;3.27;0.80;;;;;;;;;;4995685;28;20462;-63
2023/03/27 09:29:14;;;;;;;2.30;1.17;;;;;;;;;;4995625;28;20443;-63
2023/03/27 09:31:45;;;;;;;2.75;1.10;;;;;;;;;;4995451;28;20487;-63
2023/03/27 09:34:14;;;;;;;5.50;0.90;;;;;;;;;;4995502;28;20206;-63
2023/03/27 09:36:43;;;;;;;2.73;0.97;;;;;;;;;;4995603;28;20455;-61
2023/03/27 09:39:14;;;;;;;1.00;0.90;;;;;;;;;;5006274;28;20482;-62
2023/03/27 09:41:42;;;;;;;1.10;1.00;;;;;;;;;;5014960;28;20529;-61
2023/03/27 09:44:11;;;;;;;2.40;1.10;;;;;;;;;;5014723;28;20454;-60
2023/03/27 09:46:40;;;;;;;1.63;1.53;;;;;;;;;;5014428;28;20478;-60
2023/03/27 09:49:12;;;;;;;1.50;1.30;;;;;;;;;;5014489;28;20460;-61
2023/03/27 09:51:41;;;;;;;1.30;1.20;;;;;;;;;;5014928;28;20530;-60
2023/03/27 09:54:11;;;;;;;1.20;1.10;;;;;;;;;;5014738;28;20537;-60
2023/03/27 09:56:40;;;;;;;3.80;2.97;;;;;;;;;;5014511;28;20854;-60
2023/03/27 09:59:12;;;;;;;1.63;1.30;;;;;;;;;;5014287;28;20934;-61
2023/03/27 10:01:46;;;;;;;1.60;1.23;;;;;;;;;;5014900;28;20509;-61
2023/03/27 10:04:14;;;;;;;1.40;1.30;;;;;;;;;;5014521;28;20450;-60
2023/03/27 10:06:43;;;;;;;2.00;1.20;;;;;;;;;;5014488;28;20590;-60
2023/03/27 10:09:21;;;;;;;1.10;1.00;;;;;;;;;;5014371;28;20447;-62
2023/03/27 10:11:49;;;;;;;1.40;1.30;;;;;;;;;;5014572;28;20442;-59
2023/03/27 10:14:17;;;;;;;1.30;1.20;;;;;;;;;;5014345;28;20965;-60
2023/03/27 10:16:46;;;;;;;1.20;0.97;;;;;;;;;;5014526;28;20451;-61
2023/03/27 10:19:20;;;;;;;4.50;1.67;;;;;;;;;;5014338;28;20497;-62
2023/03/27 10:21:47;;;;;;;1.00;0.90;;;;;;;;;;5014192;28;20549;-62
2023/03/27 10:24:22;;;;;;;1.00;0.90;;;;;;;;;;5014112;28;20549;-60
2023/03/27 10:26:49;;;;;;;1.23;1.10;;;;;;;;;;5014090;28;20450;-60
2023/03/27 10:29:22;;;;;;;1.75;1.10;;;;;;;;;;5012759;28;20629;-60
2023/03/27 10:31:50;;;;;;;1.50;1.00;;;;;;;;;;5013981;28;20282;-60
2023/03/27 10:34:37;;;;;;;2.30;1.53;;;;;;;;;;5013866;28;20451;-60
2023/03/27 10:37:22;;;;;;;2.23;1.20;;;;;;;;;;5014040;28;20447;-61
2023/03/27 10:39:52;;;;;;;1.70;1.00;;;;;;;;;;5013685;28;21010;-62
2023/03/27 10:42:21;;;;;;;1.20;1.10;;;;;;;;;;5013811;28;20470;-61
2023/03/27 10:44:49;;;;;;;1.83;1.00;;;;;;;;;;5013664;28;20889;-61
2023/03/27 10:47:19;;;;;;;4.60;1.20;;;;;;;;;;5013947;28;20447;-62
2023/03/27 10:49:47;;;;;;;3.87;1.20;;;;;;;;;;5013923;28;20531;-60
2023/03/27 10:52:18;;;;;;;2.00;1.10;;;;;;;;;;5013664;28;20490;-60
2023/03/27 10:54:46;;;;;;;1.30;1.20;;;;;;;;;;5024030;28;20537;-61
2023/03/27 10:57:16;;;;;;;1.30;1.10;;;;;;;;;;5033184;28;20452;-61
2023/03/27 10:59:46;;;;;;;1.10;1.00;;;;;;;;;;5033402;28;20453;-60
2023/03/27 11:02:15;;;;;;;1.87;1.20;;;;;;;;;;5033427;28;20456;-61
2023/03/27 11:04:44;;;;;;;2.70;1.07;;;;;;;;;;5033391;28;20809;-61
2023/03/27 11:07:14;;;;;;;1.00;0.90;;;;;;;;;;5033016;28;20973;-60
2023/03/27 11:09:43;;;;;;;2.13;0.90;;;;;;;;;;5032632;28;20450;-62
2023/03/27 11:12:13;;;;;;;2.50;1.10;;;;;;;;;;5033268;28;20929;-61
2023/03/27 11:14:46;;;;;;;1.17;1.00;;;;;;;;;;5033049;28;20446;-61
2023/03/27 11:17:17;;;;;;;2.10;1.33;;;;;;;;;;5033152;28;20453;-60
2023/03/27 11:19:45;;;;;;;0.90;0.90;;;;;;;;;;5033044;28;20560;-60
2023/03/27 11:22:15;;;;;;;1.43;1.33;;;;;;;;;;5032819;28;20453;-60
2023/03/27 11:24:46;;;;;;;1.43;1.27;;;;;;;;;;5033004;28;20816;-60
2023/03/27 11:27:17;;;;;;;1.30;1.00;;;;;;;;;;5032446;28;20934;-61
2023/03/27 11:29:49;;;;;;;1.93;1.10;;;;;;;;;;5032803;28;20472;-61
2023/03/27 11:32:20;;;;;;;1.60;1.10;;;;;;;;;;5032680;28;20900;-61
2023/03/27 11:34:51;;;;;;;1.63;1.20;;;;;;;;;;5032509;28;20548;-60
2023/03/27 11:37:22;;;;;;;0.83;0.80;;;;;;;;;;5032898;28;20457;-60
2023/03/27 11:39:51;;;;;;;1.60;1.10;;;;;;;;;;5032468;28;20473;-61
2023/03/27 11:42:22;;;;;;;1.20;0.90;;;;;;;;;;5032796;28;20485;-60
2023/03/27 11:44:52;;;;;;;5.33;1.20;;;;;;;;;;5032630;28;20445;-62
2023/03/27 11:47:29;;;;;;;0.90;0.80;;;;;;;;;;5032539;28;20500;-62
2023/03/27 11:50:06;;;;;;;1.23;1.00;;;;;;;;;;5032709;28;20445;-60
2023/03/27 11:52:40;;;;;;;0.90;0.90;;;;;;;;;;5032565;28;20455;-57
2023/03/27 11:55:11;;;;;;;1.00;0.90;;;;;;;;;;5032571;28;20515;-59
2023/03/27 11:57:43;;;;;;;3.87;1.43;;;;;;;;;;5032606;28;20967;-61
2023/03/27 12:00:15;;;;;;;3.70;1.00;;;;;;;;;;5032553;28;20453;-61
2023/03/27 12:02:49;;;;;;;0.80;0.73;;;;;;;;;;5032447;28;20457;-66
2023/03/27 12:05:20;;;;;;;1.10;1.00;;;;;;;;;;5032514;28;20548;-63
2023/03/27 12:07:51;;;;;;;2.00;1.00;;;;;;;;;;5032366;28;20457;-62
2023/03/27 12:10:24;;;;;;;2.50;1.10;;;;;;;;;;5032354;28;20445;-61
2023/03/27 12:13:11;;;;;;;1.20;1.10;;;;;;;;;;5032449;28;20455;-61
2023/03/27 12:15:51;;;;;;;1.27;0.90;;;;;;;;;;5032346;28;20481;-61
2023/03/27 12:18:23;;;;;;;4.10;0.90;;;;;;;;;;5032014;28;20489;-61
2023/03/27 12:21:00;;;;;;;1.13;0.90;;;;;;;;;;5032353;28;20945;-59
2023/03/27 12:23:45;;;;;;;1.03;0.80;;;;;;;;;;5034808;28;20806;-61
2023/03/27 12:26:18;;;;;;;0.90;0.80;;;;;;;;;;5036188;28;20874;-60
2023/03/27 12:28:52;;;;;;;2.07;0.80;;;;;;;;;;5035885;28;20540;-59
2023/03/27 12:31:26;;;;;;;2.10;0.87;;;;;;;;;;5035801;28;21008;-62
2023/03/27 12:33:56;;;;;;;3.60;1.10;;;;;;;;;;5036098;28;20548;-61
2023/03/27 12:36:26;;;;;;;1.40;1.30;;;;;;;;;;5035956;28;20481;-60
2023/03/27 12:38:54;;;;;;;1.93;1.00;;;;;;;;;;5035669;28;20477;-61
2023/03/27 12:41:22;;;;;;;0.90;0.80;;;;;;;;;;5035630;28;20449;-61
2023/03/27 12:43:54;;;;;;;1.57;1.00;;;;;;;;;;5035669;28;20457;-61
2023/03/27 12:46:33;;;;;;;1.20;1.10;;;;;;;;;;5034673;28;20489;-60
2023/03/27 12:49:04;;;;;;;0.90;0.73;;;;;;;;;;5035731;28;20598;-61
2023/03/27 12:51:43;;;;;;;4.00;0.90;;;;;;;;;;5035677;28;20445;-61
2023/03/27 12:54:23;;;;;;;1.67;0.93;;;;;;;;;;5035558;28;20447;-64
2023/03/27 12:56:50;;;;;;;4.90;1.10;;;;;;;;;;5035611;28;20504;-61
2023/03/27 12:59:22;;;;;;;2.40;0.97;;;;;;;;;;5035487;28;20544;-62
2023/03/27 13:02:01;;;;;;;2.25;1.40;;;;;;;;;;5034729;28;20457;-63
2023/03/27 13:04:40;;;;;;;2.50;1.10;;;;;;;;;;5033984;28;20840;-60
2023/03/27 13:07:10;;;;;;;0.90;0.80;;;;;;;;;;5035273;28;20187;-60
2023/03/27 13:09:46;;;;;;;1.80;1.70;;;;;;;;;;5035326;28;20545;-61
2023/03/27 13:12:23;;;;;;;1.30;0.93;;;;;;;;;;5035262;28;20453;-58
2023/03/27 13:15:05;;;;;;;1.63;1.03;;;;;;;;;;5034842;28;20450;-62
2023/03/27 13:17:46;;;;;;;1.50;1.00;;;;;;;;;;5035087;28;20483;-62
2023/03/27 13:20:18;;;;;;;0.90;0.70;;;;;;;;;;5034769;28;20485;-62
2023/03/27 13:22:51;;;;;;;0.80;0.80;;;;;;;;;;5035207;28;20477;-62
2023/03/27 13:25:35;;;;;;;0.83;0.70;;;;;;;;;;5034992;28;20546;-61
2023/03/27 13:28:12;;;;;;;3.57;1.47;;;;;;;;;;5035055;28;20445;-62
2023/03/27 13:30:44;;;;;;;2.60;1.00;;;;;;;;;;5035115;28;20582;-60
2023/03/27 13:33:15;;;;;;;2.50;0.90;;;;;;;;;;5034503;28;20489;-61
2023/03/27 13:35:50;;;;;;;1.47;0.90;;;;;;;;;;5034925;28;20856;-61
2023/03/27 13:38:17;;;;;;;5.73;1.07;;;;;;;;;;5034931;28;20483;-63
2023/03/27 13:40:48;;;;;;;1.23;1.00;;;;;;;;;;5035039;28;20856;-61
2023/03/27 13:43:20;;;;;;;1.33;1.00;;;;;;;;;;5034733;28;20445;-60
2023/03/27 13:45:48;;;;;;;2.60;1.07;;;;;;;;;;5034555;28;20449;-61
2023/03/27 13:48:29;;;;;;;2.93;1.23;;;;;;;;;;5034536;28;20545;-60
2023/03/27 13:51:06;;;;;;;2.40;1.10;;;;;;;;;;5034724;28;20450;-61
2023/03/27 13:53:43;;;;;;;1.00;0.90;;;;;;;;;;5034569;28;20450;-61
2023/03/27 13:56:15;;;;;;;0.97;0.87;;;;;;;;;;5034469;28;20495;-61
2023/03/27 13:58:47;;;;;;;3.20;1.00;;;;;;;;;;5034694;28;20442;-60
2023/03/27 14:01:24;;;;;;;2.20;1.17;;;;;;;;;;5034378;28;20449;-61
2023/03/27 14:04:03;;;;;;;5.60;1.00;;;;;;;;;;5034406;28;20485;-61
2023/03/27 14:06:44;;;;;;;2.60;1.00;;;;;;;;;;5034311;28;20446;-61
2023/03/27 14:09:15;;;;;;;1.80;0.93;;;;;;;;;;5034374;28;20449;-61
2023/03/27 14:11:48;;;;;;;1.40;1.00;;;;;;;;;;5034210;28;20500;-61
2023/03/27 14:14:33;;;;;;;3.23;1.10;;;;;;;;;;5033960;28;20448;-61
2023/03/27 14:17:11;;;;;;;1.70;0.90;;;;;;;;;;5033984;28;20495;-61
2023/03/27 14:19:58;;;;;;;2.30;1.10;;;;;;;;;;5034202;28;20536;-60
2023/03/27 14:22:28;;;;;;;1.30;1.20;;;;;;;;;;5034035;28;20540;-61
2023/03/27 14:24:56;;;;;;;1.10;1.00;;;;;;;;;;5034025;28;20450;-61
2023/03/27 14:27:25;;;;;;;2.00;1.20;;;;;;;;;;5033885;28;20450;-61
2023/03/27 14:30:03;;;;;;;1.13;1.03;;;;;;;;;;5034104;28;20519;-62
2023/03/27 14:32:30;;;;;;;1.80;1.40;;;;;;;;;;5034108;28;20564;-61
2023/03/27 14:35:04;;;;;;;1.10;1.00;;;;;;;;;;5033950;28;20460;-61
2023/03/27 14:37:34;;;;;;;1.90;1.23;;;;;;;;;;5033694;28;20580;-61
2023/03/27 14:40:05;;;;;;;3.50;1.37;;;;;;;;;;5033556;28;20477;-61
2023/03/27 14:42:33;;;;;;;1.27;1.17;;;;;;;;;;5033949;28;20434;-63
2023/03/27 14:45:11;;;;;;;1.67;0.90;;;;;;;;;;5032789;28;20450;-62
2023/03/27 14:47:38;;;;;;;1.97;1.07;;;;;;;;;;5033378;28;20455;-62
2023/03/27 14:50:06;;;;;;;1.40;1.23;;;;;;;;;;5033581;28;20449;-62
2023/03/27 14:52:34;;;;;;;1.93;1.60;;;;;;;;;;5033437;28;20445;-63
2023/03/27 14:55:03;;;;;;;1.27;1.00;;;;;;;;;;5033357;28;20449;-62
2023/03/27 14:57:30;;;;;;;3.40;1.60;;;;;;;;;;5033383;28;20314;-62
2023/03/27 14:59:57;;;;;;;2.07;1.37;;;;;;;;;;5033139;28;20867;-62